sensor_id;sensor_type;location;lat;lon;timestamp;pressure;altitude;pressure_sealevel;temperature;humidity
34983;BME280;21187;50.976;13.720;2024-03-23T00:55:30;97446.28;;;14.34;45.24
34983;BME280;21187;50.976;13.720;2024-03-23T01:00:31;97446.31;;;14.27;45.36
34983;BME280;21187;50.976;13.720;2024-03-23T01:05:32;97449.03;;;14.23;45.56
34983;BME280;21187;50.976;13.720;2024-03-23T01:10:33;97445.94;;;14.18;45.85
34983;BME280;21187;50.976;13.720;2024-03-23T01:15:34;97440.09;;;14.08;45.78
34983;BME280;21187;50.976;13.720;2024-03-23T01:20:34;97425.69;;;14.11;45.92
34983;BME280;21187;50.976;13.720;2024-03-23T01:25:35;97414.81;;;14.11;46.26
34983;BME280;21187;50.976;13.720;2024-03-23T01:30:36;97413.25;;;13.96;46.63
34983;BME280;21187;50.976;13.720;2024-03-23T01:35:37;97405.91;;;13.71;46.79
34983;BME280;21187;50.976;13.720;2024-03-23T01:40:38;97404.75;;;13.69;47.00
34983;BME280;21187;50.976;13.720;2024-03-23T01:45:39;97395.41;;;13.66;47.39
34983;BME280;21187;50.976;13.720;2024-03-23T01:50:40;97383.34;;;13.67;47.58
34983;BME280;21187;50.976;13.720;2024-03-23T01:55:41;97377.16;;;13.59;47.95
34983;BME280;21187;50.976;13.720;2024-03-23T02:00:42;97376.75;;;13.57;48.21
34983;BME280;21187;50.976;13.720;2024-03-23T02:05:42;97375.97;;;13.60;48.49
34983;BME280;21187;50.976;13.720;2024-03-23T02:10:43;97368.97;;;13.63;48.59
34983;BME280;21187;50.976;13.720;2024-03-23T02:15:44;97356.16;;;13.60;48.76
34983;BME280;21187;50.976;13.720;2024-03-23T02:20:45;97356.56;;;13.58;48.97
34983;BME280;21187;50.976;13.720;2024-03-23T02:25:46;97339.44;;;13.51;49.11
34983;BME280;21187;50.976;13.720;2024-03-23T02:30:46;97333.22;;;13.54;49.45
34983;BME280;21187;50.976;13.720;2024-03-23T02:35:49;97330.09;;;13.55;49.46
34983;BME280;21187;50.976;13.720;2024-03-23T02:40:50;97317.66;;;13.58;49.44
34983;BME280;21187;50.976;13.720;2024-03-23T02:45:50;97328.56;;;13.58;49.72
34983;BME280;21187;50.976;13.720;2024-03-23T02:50:51;97326.22;;;13.42;50.38
34983;BME280;21187;50.976;13.720;2024-03-23T02:55:52;97320.00;;;13.30;50.40
34983;BME280;21187;50.976;13.720;2024-03-23T03:00:53;97321.56;;;13.28;50.70
34983;BME280;21187;50.976;13.720;2024-03-23T03:05:57;97311.44;;;13.25;50.83
34983;BME280;21187;50.976;13.720;2024-03-23T03:10:57;97286.22;;;13.28;50.70
34983;BME280;21187;50.976;13.720;2024-03-23T03:15:58;97285.06;;;13.29;50.56
34983;BME280;21187;50.976;13.720;2024-03-23T03:20:59;97275.34;;;13.28;50.74
34983;BME280;21187;50.976;13.720;2024-03-23T03:26:00;97269.50;;;13.26;50.54
34983;BME280;21187;50.976;13.720;2024-03-23T03:31:00;97267.94;;;13.25;50.20
34983;BME280;21187;50.976;13.720;2024-03-23T03:36:01;97258.63;;;13.15;50.29
34983;BME280;21187;50.976;13.720;2024-03-23T03:41:02;97258.25;;;13.02;50.77
34983;BME280;21187;50.976;13.720;2024-03-23T03:46:03;97260.16;;;12.84;50.79
34983;BME280;21187;50.976;13.720;2024-03-23T03:51:04;97267.91;;;12.60;51.71
34983;BME280;21187;50.976;13.720;2024-03-23T03:56:05;97232.97;;;12.47;52.12
34983;BME280;21187;50.976;13.720;2024-03-23T04:01:06;97224.81;;;12.58;51.72
34983;BME280;21187;50.976;13.720;2024-03-23T04:06:06;97232.59;;;12.71;51.52
34983;BME280;21187;50.976;13.720;2024-03-23T04:11:07;97219.78;;;12.78;51.27
34983;BME280;21187;50.976;13.720;2024-03-23T04:16:08;97221.75;;;12.78;51.14
34983;BME280;21187;50.976;13.720;2024-03-23T04:21:09;97209.31;;;12.66;50.82
34983;BME280;21187;50.976;13.720;2024-03-23T04:26:10;97204.28;;;12.54;51.13
34983;BME280;21187;50.976;13.720;2024-03-23T04:31:11;97195.69;;;12.44;51.09
34983;BME280;21187;50.976;13.720;2024-03-23T04:36:14;97191.06;;;12.41;51.26
34983;BME280;21187;50.976;13.720;2024-03-23T04:41:14;97162.72;;;12.35;51.10
34983;BME280;21187;50.976;13.720;2024-03-23T04:46:15;97161.97;;;12.27;51.12
34983;BME280;21187;50.976;13.720;2024-03-23T04:51:23;97152.25;;;12.26;51.42
34983;BME280;21187;50.976;13.720;2024-03-23T04:56:24;97129.75;;;12.19;51.24
34983;BME280;21187;50.976;13.720;2024-03-23T05:01:25;97111.13;;;12.13;51.31
34983;BME280;21187;50.976;13.720;2024-03-23T05:06:26;97090.59;;;12.16;51.17
34983;BME280;21187;50.976;13.720;2024-03-23T05:11:27;97091.75;;;12.19;51.50
34983;BME280;21187;50.976;13.720;2024-03-23T05:16:28;97090.97;;;12.22;51.27
34983;BME280;21187;50.976;13.720;2024-03-23T05:21:29;97067.72;;;12.21;51.18
34983;BME280;21187;50.976;13.720;2024-03-23T05:26:29;97077.78;;;12.09;51.39
34983;BME280;21187;50.976;13.720;2024-03-23T05:31:31;97059.13;;;11.82;51.87
34983;BME280;21187;50.976;13.720;2024-03-23T05:36:32;97060.69;;;11.91;51.72
34983;BME280;21187;50.976;13.720;2024-03-23T05:41:33;97048.31;;;12.01;51.72
34983;BME280;21187;50.976;13.720;2024-03-23T05:46:36;97064.59;;;12.08;51.70
34983;BME280;21187;50.976;13.720;2024-03-23T05:51:37;97049.09;;;12.15;51.36
34983;BME280;21187;50.976;13.720;2024-03-23T05:56:37;97029.69;;;12.24;51.71
34983;BME280;21187;50.976;13.720;2024-03-23T06:01:38;97014.56;;;12.30;51.57
34983;BME280;21187;50.976;13.720;2024-03-23T06:06:39;96999.44;;;12.33;51.71
34983;BME280;21187;50.976;13.720;2024-03-23T06:11:40;97003.31;;;12.32;51.86
34983;BME280;21187;50.976;13.720;2024-03-23T06:16:41;96982.75;;;12.31;51.95
34983;BME280;21187;50.976;13.720;2024-03-23T06:21:45;96973.09;;;12.30;52.14
34983;BME280;21187;50.976;13.720;2024-03-23T06:26:46;96971.16;;;12.30;52.04
34983;BME280;21187;50.976;13.720;2024-03-23T06:31:53;96937.78;;;12.34;52.28
34983;BME280;21187;50.976;13.720;2024-03-23T06:36:55;96938.94;;;12.36;52.33
34983;BME280;21187;50.976;13.720;2024-03-23T06:41:56;96925.00;;;12.23;52.55
34983;BME280;21187;50.976;13.720;2024-03-23T06:46:59;96904.09;;;12.13;52.77
34983;BME280;21187;50.976;13.720;2024-03-23T06:52:03;96903.34;;;12.05;52.94
34983;BME280;21187;50.976;13.720;2024-03-23T06:57:04;96903.34;;;12.05;52.98
34983;BME280;21187;50.976;13.720;2024-03-23T07:02:08;96903.34;;;12.05;53.13
34983;BME280;21187;50.976;13.720;2024-03-23T07:07:09;96897.91;;;12.05;53.16
34983;BME280;21187;50.976;13.720;2024-03-23T07:12:09;96904.13;;;11.98;53.53
34983;BME280;21187;50.976;13.720;2024-03-23T07:17:10;96895.19;;;12.05;53.67
34983;BME280;21187;50.976;13.720;2024-03-23T07:22:11;96845.91;;;12.18;53.43
34983;BME280;21187;50.976;13.720;2024-03-23T07:27:12;96828.81;;;12.28;53.45
34983;BME280;21187;50.976;13.720;2024-03-23T07:32:13;96837.31;;;12.37;53.33
34983;BME280;21187;50.976;13.720;2024-03-23T07:37:14;96814.03;;;12.43;53.36
34983;BME280;21187;50.976;13.720;2024-03-23T07:42:15;96810.09;;;12.52;53.43
34983;BME280;21187;50.976;13.720;2024-03-23T07:47:16;96811.63;;;12.60;53.78
34983;BME280;21187;50.976;13.720;2024-03-23T07:52:17;96811.59;;;12.67;53.90
34983;BME280;21187;50.976;13.720;2024-03-23T07:57:18;96785.16;;;12.75;53.93
34983;BME280;21187;50.976;13.720;2024-03-23T08:02:19;96771.13;;;12.84;54.10
34983;BME280;21187;50.976;13.720;2024-03-23T08:07:19;96760.94;;;12.95;54.03
34983;BME280;21187;50.976;13.720;2024-03-23T08:12:20;96748.50;;;12.97;54.07
34983;BME280;21187;50.976;13.720;2024-03-23T08:17:21;96747.72;;;12.97;53.96
34983;BME280;21187;50.976;13.720;2024-03-23T08:22:22;96735.28;;;12.99;54.18
34983;BME280;21187;50.976;13.720;2024-03-23T08:27:22;96725.88;;;13.11;54.01
34983;BME280;21187;50.976;13.720;2024-03-23T08:32:23;96708.00;;;13.56;53.97
34983;BME280;21187;50.976;13.720;2024-03-23T08:37:24;96708.13;;;14.10;53.77
34983;BME280;21187;50.976;13.720;2024-03-23T08:42:25;96719.47;;;14.36;53.67
34983;BME280;21187;50.976;13.720;2024-03-23T08:47:26;96725.50;;;14.47;53.97
34983;BME280;21187;50.976;13.720;2024-03-23T08:52:27;96731.41;;;14.42;54.17
34983;BME280;21187;50.976;13.720;2024-03-23T08:57:30;96717.94;;;14.31;54.92
34983;BME280;21187;50.976;13.720;2024-03-23T09:02:30;96719.00;;;14.41;54.31
34983;BME280;21187;50.976;13.720;2024-03-23T09:07:31;96721.41;;;14.63;53.59
34983;BME280;21187;50.976;13.720;2024-03-23T09:12:32;96719.16;;;14.85;52.97
34983;BME280;21187;50.976;13.720;2024-03-23T09:17:33;96721.94;;;15.05;52.05
34983;BME280;21187;50.976;13.720;2024-03-23T09:22:33;96738.97;;;15.13;50.90
34983;BME280;21187;50.976;13.720;2024-03-23T09:27:34;96753.13;;;15.04;51.76
34983;BME280;21187;50.976;13.720;2024-03-23T09:32:35;96757.16;;;14.96;52.14
34983;BME280;21187;50.976;13.720;2024-03-23T09:37:36;96759.13;;;14.68;52.26
34983;BME280;21187;50.976;13.720;2024-03-23T09:42:37;96756.31;;;14.44;52.59
34983;BME280;21187;50.976;13.720;2024-03-23T09:47:38;96797.78;;;14.25;52.67
34983;BME280;21187;50.976;13.720;2024-03-23T09:52:40;96812.38;;;13.69;53.53
34983;BME280;21187;50.976;13.720;2024-03-23T09:57:42;96821.97;;;13.39;54.30
34983;BME280;21187;50.976;13.720;2024-03-23T10:02:43;96870.88;;;12.83;55.53
34983;BME280;21187;50.976;13.720;2024-03-23T10:07:44;96890.09;;;12.22;55.68
34983;BME280;21187;50.976;13.720;2024-03-23T10:12:45;96934.34;;;11.68;55.73
34983;BME280;21187;50.976;13.720;2024-03-23T10:17:48;96967.19;;;11.27;55.47
34983;BME280;21187;50.976;13.720;2024-03-23T10:22:49;96992.09;;;10.66;55.88
34983;BME280;21187;50.976;13.720;2024-03-23T10:27:59;97030.66;;;10.41;55.20
34983;BME280;21187;50.976;13.720;2024-03-23T10:33:10;97074.44;;;10.09;54.86
34983;BME280;21187;50.976;13.720;2024-03-23T10:38:12;97106.38;;;9.59;55.13
34983;BME280;21187;50.976;13.720;2024-03-23T10:43:13;97132.97;;;9.23;55.74
34983;BME280;21187;50.976;13.720;2024-03-23T10:48:14;97158.25;;;8.84;56.32
34983;BME280;21187;50.976;13.720;2024-03-23T18:52:32;97381.19;;;7.39;57.51
34983;BME280;21187;50.976;13.720;2024-03-23T18:57:33;97375.94;;;7.62;56.80
34983;BME280;21187;50.976;13.720;2024-03-23T19:02:34;97368.81;;;7.70;56.47
34983;BME280;21187;50.976;13.720;2024-03-23T19:07:35;97361.72;;;7.62;55.73
34983;BME280;21187;50.976;13.720;2024-03-23T19:12:36;97363.34;;;7.50;55.71
34983;BME280;21187;50.976;13.720;2024-03-23T19:17:37;97360.94;;;7.45;54.96
34983;BME280;21187;50.976;13.720;2024-03-23T19:22:39;97360.94;;;7.45;54.55
34983;BME280;21187;50.976;13.720;2024-03-23T19:27:40;97355.53;;;7.45;54.34
34983;BME280;21187;50.976;13.720;2024-03-23T19:32:46;97355.72;;;7.53;54.26
34983;BME280;21187;50.976;13.720;2024-03-23T19:37:48;97359.53;;;7.52;54.19
34983;BME280;21187;50.976;13.720;2024-03-23T19:42:49;97357.97;;;7.50;54.20
34983;BME280;21187;50.976;13.720;2024-03-23T19:47:50;97367.97;;;7.50;54.00
34983;BME280;21187;50.976;13.720;2024-03-23T19:52:51;97367.13;;;7.46;53.79
34983;BME280;21187;50.976;13.720;2024-03-23T19:57:52;97367.72;;;7.39;53.97
34983;BME280;21187;50.976;13.720;2024-03-23T20:02:53;97376.06;;;7.34;53.98
34983;BME280;21187;50.976;13.720;2024-03-23T20:07:54;97371.34;;;7.31;54.08
34983;BME280;21187;50.976;13.720;2024-03-23T20:12:55;97377.44;;;7.28;54.09
34983;BME280;21187;50.976;13.720;2024-03-23T20:17:57;97371.53;;;7.22;54.17
34983;BME280;21187;50.976;13.720;2024-03-23T20:22:58;97373.44;;;7.22;54.02
34983;BME280;21187;50.976;13.720;2024-03-23T20:27:59;97359.03;;;7.14;54.11
34983;BME280;21187;50.976;13.720;2024-03-23T20:33:00;97371.53;;;7.06;54.11
34983;BME280;21187;50.976;13.720;2024-03-23T20:38:01;97370.56;;;6.98;54.07
34983;BME280;21187;50.976;13.720;2024-03-23T20:43:08;97359.94;;;6.90;54.32
34983;BME280;21187;50.976;13.720;2024-03-23T20:48:09;97360.19;;;6.85;53.87
34983;BME280;21187;50.976;13.720;2024-03-23T20:53:11;97353.94;;;6.80;53.97
34983;BME280;21187;50.976;13.720;2024-03-23T20:58:12;97345.25;;;6.71;54.26
34983;BME280;21187;50.976;13.720;2024-03-23T21:03:13;97337.91;;;6.84;54.04
34983;BME280;21187;50.976;13.720;2024-03-23T21:08:15;97336.78;;;7.01;53.43
34983;BME280;21187;50.976;13.720;2024-03-23T21:13:16;97338.16;;;6.95;53.38
34983;BME280;21187;50.976;13.720;2024-03-23T21:18:17;97338.00;;;6.88;53.33
34983;BME280;21187;50.976;13.720;2024-03-23T21:23:18;97332.50;;;6.84;53.11
34983;BME280;21187;50.976;13.720;2024-03-23T21:28:20;97332.41;;;6.80;53.22
34983;BME280;21187;50.976;13.720;2024-03-23T21:33:21;97329.56;;;6.73;53.04
34983;BME280;21187;50.976;13.720;2024-03-23T21:38:22;97323.97;;;6.66;52.84
34983;BME280;21187;50.976;13.720;2024-03-23T21:43:23;97325.09;;;6.65;53.02
34983;BME280;21187;50.976;13.720;2024-03-23T21:48:25;97310.09;;;6.64;52.65
34983;BME280;21187;50.976;13.720;2024-03-23T21:53:27;97315.03;;;6.62;52.52
34983;BME280;21187;50.976;13.720;2024-03-23T21:58:28;97329.78;;;6.68;52.34
34983;BME280;21187;50.976;13.720;2024-03-23T22:03:30;97324.41;;;6.68;52.32
34983;BME280;21187;50.976;13.720;2024-03-23T22:08:31;97322.84;;;6.67;52.05
34983;BME280;21187;50.976;13.720;2024-03-23T22:13:32;97327.94;;;6.56;52.35
34983;BME280;21187;50.976;13.720;2024-03-23T22:18:33;97319.28;;;6.63;52.61
34983;BME280;21187;50.976;13.720;2024-03-23T22:23:34;97318.16;;;6.64;52.09
34983;BME280;21187;50.976;13.720;2024-03-23T22:28:35;97319.72;;;6.65;52.16
34983;BME280;21187;50.976;13.720;2024-03-23T22:33:36;97313.03;;;6.59;52.13
34983;BME280;21187;50.976;13.720;2024-03-23T22:38:36;97304.84;;;6.55;51.99
34983;BME280;21187;50.976;13.720;2024-03-23T22:43:37;97307.19;;;6.57;52.24
34983;BME280;21187;50.976;13.720;2024-03-23T22:48:38;97303.19;;;6.50;52.01
34983;BME280;21187;50.976;13.720;2024-03-23T22:53:39;97301.53;;;6.46;52.18
34983;BME280;21187;50.976;13.720;2024-03-23T22:58:39;97308.88;;;6.33;52.48
34983;BME280;21187;50.976;13.720;2024-03-23T23:03:40;97295.09;;;6.35;52.51
34983;BME280;21187;50.976;13.720;2024-03-23T23:08:41;97296.53;;;6.32;52.22
34983;BME280;21187;50.976;13.720;2024-03-23T23:13:41;97285.78;;;6.32;52.29
34983;BME280;21187;50.976;13.720;2024-03-23T23:18:42;97285.91;;;6.36;52.03
34983;BME280;21187;50.976;13.720;2024-03-23T23:23:43;97288.06;;;6.30;52.12
34983;BME280;21187;50.976;13.720;2024-03-23T23:28:45;97276.44;;;6.26;52.17
34983;BME280;21187;50.976;13.720;2024-03-23T23:33:46;97285.41;;;6.18;52.30
34983;BME280;21187;50.976;13.720;2024-03-23T23:38:48;97282.63;;;6.14;52.59
34983;BME280;21187;50.976;13.720;2024-03-23T23:43:54;97280.59;;;6.11;52.57
34983;BME280;21187;50.976;13.720;2024-03-23T23:48:55;97286.00;;;6.11;52.51
34983;BME280;21187;50.976;13.720;2024-03-23T23:53:56;97271.31;;;6.08;52.53
34983;BME280;21187;50.976;13.720;2024-03-23T23:58:57;97264.41;;;6.07;52.10
